KHIE/HIE METAR and TAF weather

Enter ICAO airport designator
Station Type Date Time Source
KHIE METAR 2019/10/15 03:52 UTC NOAA

KHIE 150352Z AUTO 00000KT 10SM BKN046 OVC090 08/04 A3001 RMK AO2 SLP165 T00780044


Station Type Date Time Source
KHIE Decoded METAR 2019/10/15 03:52 UTC NOAA

MT WASHINGTON REGIONAL AIRPORT , NH, United States (KHIE) 44-22N 71-33W 318M
Oct 14, 2019 - 11:52 PM EDT / 2019.10.15 0352 UTC
Wind: Calm:0
Visibility: 10 mile(s):0
Sky conditions: overcast
Temperature: 46.0 F (7.8 C)
Dew Point: 39.9 F (4.4 C)
Relative Humidity: 79%
Pressure (altimeter): 30.01 in. Hg (1016 hPa)
ob: KHIE 150352Z AUTO 00000KT 10SM BKN046 OVC090 08/04 A3001 RMK AO2 SLP165 T00780044
cycle: 4

Station Type Date Time Source
KHIE TAF 2019/10/15 02:12 UTC NOAA

TAF
AMD KHIE 150211Z 1502/1524 29002KT P6SM BKN035
FM150600 26004KT P6SM SCT100

Example: see airport list